Main page
METAR-TAF:

METAR-TAF

Airports :

Shiraz International Airport

Shiraz, Iran

latitude: 29-32N, longitude: 052-35E, elevation: 1486 m

Current weather observation

The report was made 22 minutes ago, at 06:00 UTC
Calm wind
Temperature 18°C
Humidity 49%
Pressure 1025 hPa
Visibility 10 km or more
no clouds below 1500 m and no cumulonimbus

METAR: OISS 230600Z 00000KT CAVOK 18/07 Q1024 A3026

Time: 09:52 (06:22 UTC)

Forecast

The report was made 52 minutes ago, at 05:30 UTC
Forecast valid from 23 at 06 UTC to 24 at 12 UTC
Wind 4 kt from variable directions
Visibility: 7000 m
Temporary
from 23 at 15 UTC to 23 at 24 UTC
Wind 12 kt from the West
Few clouds at a height of 3500 ft, Cumulonimbus.
Scattered clouds at a height of 9000 ft

TAF: OISS 230530Z 2306/2412 VRB02MPS 7000 NSC TEMPO 2315/2324 26006MPS FEW035CB SCT090

Weather observations and forecasts of more than 4000 airports (METAR and TAF reports).

The available stations are represented by yellow and red dots on the map.

Hover mouse over dot to see the name of the station.

Then click to see weather observations and forecasts.

To change the map : click on the green buttons with a black cross to zoom in, on the green button with a dash to zoom out, or on the green arrows for adjacent maps.


METAR-TAF: